Time;durP1;ratioP1;P1;durP2;ratioP2;P2;SDS_P1;SDS_P2;PMS_P1;PMS_P2;Temp;Humidity;BMP_temperature;BMP_pressure;BME280_temperature;BME280_humidity;BME280_pressure;Samples;Min_cycle;Max_cycle;Signal;HPM_P1;HPM_P2
2022/09/16 00:00:34;;;;;;;6.90;1.93;;;;;;;18.59;59.87;100044.38;4983353;28;20284;-65
2022/09/16 00:03:03;;;;;;;4.63;1.73;;;;;;;18.59;59.96;100042.50;4987115;28;20656;-65
2022/09/16 00:05:30;;;;;;;7.17;1.30;;;;;;;18.54;60.08;100049.53;4986739;28;20206;-65
2022/09/16 00:07:58;;;;;;;5.43;1.53;;;;;;;18.57;60.39;100038.38;4988630;28;20221;-65
2022/09/16 00:10:27;;;;;;;4.80;1.63;;;;;;;18.60;60.57;100035.28;4985140;28;20210;-65
2022/09/16 00:12:55;;;;;;;3.83;1.40;;;;;;;18.55;61.06;100043.13;4987487;28;20206;-65
2022/09/16 00:15:22;;;;;;;3.43;1.30;;;;;;;18.60;61.26;100046.03;4988619;28;20712;-66
2022/09/16 00:17:50;;;;;;;7.77;1.90;;;;;;;18.63;61.40;100037.56;4986132;28;22049;-65
2022/09/16 00:20:18;;;;;;;4.10;1.47;;;;;;;18.61;61.07;100035.06;4988467;28;20217;-65
2022/09/16 00:22:45;;;;;;;4.33;1.50;;;;;;;18.62;61.57;100043.97;4986359;28;20706;-66
2022/09/16 00:25:13;;;;;;;4.23;1.67;;;;;;;18.63;61.66;100043.75;4986017;28;20934;-65
2022/09/16 00:27:42;;;;;;;4.10;1.67;;;;;;;18.62;61.60;100047.47;4986265;28;20285;-65
2022/09/16 00:30:10;;;;;;;4.53;1.37;;;;;;;18.60;61.61;100044.16;4983601;28;20750;-65
2022/09/16 00:32:38;;;;;;;2.63;1.13;;;;;;;18.61;61.92;100047.69;4983857;28;20234;-66
2022/09/16 00:35:07;;;;;;;4.03;1.30;;;;;;;18.64;61.80;100050.78;4969268;28;20750;-66
2022/09/16 00:37:34;;;;;;;2.83;1.50;;;;;;;18.70;61.30;100059.84;4960824;28;20214;-66
2022/09/16 00:40:02;;;;;;;4.30;1.63;;;;;;;18.70;61.41;100059.84;4965028;28;20266;-66
2022/09/16 00:42:30;;;;;;;7.63;1.40;;;;;;;18.66;61.59;100056.75;4963847;28;20313;-66
2022/09/16 00:45:02;;;;;;;4.10;1.40;;;;;;;18.66;61.29;100053.22;4966404;28;20242;-66
2022/09/16 00:47:34;;;;;;;10.77;2.30;;;;;;;18.62;61.43;100052.00;4963837;28;20210;-66
2022/09/16 00:50:08;;;;;;;5.40;1.70;;;;;;;18.60;61.69;100046.03;4962007;28;20214;-66
2022/09/16 00:52:36;;;;;;;3.83;1.60;;;;;;;18.61;61.39;100042.31;4963415;28;20667;-66
2022/09/16 00:55:08;;;;;;;5.57;1.50;;;;;;;18.59;62.43;100044.38;4964399;28;20226;-66
2022/09/16 00:57:38;;;;;;;6.10;1.77;;;;;;;18.58;62.41;100040.03;4965672;28;20267;-66
2022/09/16 01:00:09;;;;;;;3.97;1.47;;;;;;;18.56;61.80;100042.09;4963196;28;20245;-66
2022/09/16 01:02:37;;;;;;;4.10;1.50;;;;;;;18.53;61.89;100037.13;4972490;28;20297;-66
2022/09/16 01:05:08;;;;;;;6.90;1.60;;;;;;;18.46;61.82;100037.16;4964635;28;21170;-66
2022/09/16 01:07:41;;;;;;;6.27;1.47;;;;;;;18.42;61.66;100041.28;4962360;28;20787;-66
2022/09/16 01:10:10;;;;;;;3.73;1.33;;;;;;;18.41;61.28;100029.72;4965726;28;20215;-66
2022/09/16 01:12:38;;;;;;;7.80;1.73;;;;;;;18.48;60.93;100042.28;4965952;28;20576;-66
2022/09/16 01:15:07;;;;;;;6.83;2.03;;;;;;;18.45;60.79;100042.72;4964294;28;20565;-66
2022/09/16 01:17:54;;;;;;;3.47;1.70;;;;;;;18.42;61.03;100042.09;4962710;28;20234;-66
2022/09/16 01:20:59;;;;;;;3.30;1.43;;;;;;;18.35;61.77;100043.16;4962554;28;20219;-67
2022/09/16 01:23:57;;;;;;;5.40;1.70;;;;;;;18.34;62.00;100039.66;4965566;28;20313;-66
2022/09/16 01:26:47;;;;;;;5.80;1.50;;;;;;;18.30;61.96;100042.94;4962743;28;20258;-66
2022/09/16 01:29:32;;;;;;;5.23;1.50;;;;;;;18.32;62.53;100055.13;4963836;28;20253;-66
2022/09/16 01:32:06;;;;;;;8.40;1.73;;;;;;;18.37;61.95;100047.28;4964272;28;20269;-66
2022/09/16 01:34:46;;;;;;;6.13;1.50;;;;;;;18.41;61.69;100053.88;4983878;28;20276;-66
2022/09/16 01:37:24;;;;;;;7.80;1.50;;;;;;;18.42;61.44;100052.84;4985918;28;20206;-65
2022/09/16 01:40:02;;;;;;;3.27;1.37;;;;;;;18.38;60.29;100053.50;4984652;28;20213;-65
2022/09/16 01:42:38;;;;;;;5.57;1.53;;;;;;;18.33;61.28;100056.78;4982994;28;20224;-66
2022/09/16 01:45:15;;;;;;;9.87;1.50;;;;;;;18.26;61.35;100053.28;4985848;28;20213;-66
2022/09/16 01:47:54;;;;;;;4.80;1.97;;;;;;;18.17;62.08;100046.47;4983004;28;20206;-66
2022/09/16 01:50:26;;;;;;;4.03;1.50;;;;;;;18.09;63.00;100030.59;4988678;28;20265;-66
2022/09/16 01:53:01;;;;;;;5.57;1.37;;;;;;;18.01;64.05;100026.25;4986648;28;20234;-66
2022/09/16 01:55:32;;;;;;;6.27;1.60;;;;;;;18.07;63.86;100021.91;4988102;28;20241;-66
2022/09/16 01:58:04;;;;;;;6.30;1.50;;;;;;;18.08;63.19;100004.78;4989889;28;20210;-66
2022/09/16 02:00:33;;;;;;;4.97;1.30;;;;;;;18.05;63.62;100007.88;4986551;28;20655;-66
2022/09/16 02:03:07;;;;;;;5.57;1.80;;;;;;;18.05;63.82;100006.03;4987922;28;20230;-65
2022/09/16 02:05:40;;;;;;;5.47;1.60;;;;;;;18.12;63.81;100019.41;4990006;28;20246;-66
2022/09/16 02:08:12;;;;;;;4.53;1.50;;;;;;;18.17;63.35;100038.44;4990577;28;20213;-66
2022/09/16 02:10:43;;;;;;;4.27;1.20;;;;;;;18.22;62.60;100046.66;4986249;28;20300;-65
2022/09/16 02:13:17;;;;;;;5.93;1.93;;;;;;;18.31;62.77;100044.59;4987773;28;20923;-66
2022/09/16 02:15:49;;;;;;;3.33;1.23;;;;;;;18.33;62.56;100048.72;4985483;28;20353;-65
2022/09/16 02:18:23;;;;;;;9.70;1.57;;;;;;;18.32;62.75;100047.06;4989135;28;20201;-65
2022/09/16 02:20:54;;;;;;;6.53;1.97;;;;;;;18.31;62.64;100036.53;4988021;28;20222;-66
2022/09/16 02:23:25;;;;;;;6.03;1.60;;;;;;;18.31;62.44;100034.69;4989762;28;20225;-66
2022/09/16 02:25:55;;;;;;;10.90;2.27;;;;;;;18.29;61.89;100031.41;4985894;28;20290;-66
2022/09/16 02:28:26;;;;;;;5.70;1.47;;;;;;;18.28;62.21;100032.44;4986900;28;20213;-66
2022/09/16 02:30:58;;;;;;;4.80;1.60;;;;;;;18.29;62.63;100039.47;4988781;28;20261;-67
2022/09/16 02:33:31;;;;;;;4.37;1.80;;;;;;;18.24;62.94;100038.41;4985172;28;20620;-66
2022/09/16 02:36:02;;;;;;;7.93;1.87;;;;;;;18.17;63.08;100046.47;4992016;28;20246;-65
2022/09/16 02:38:34;;;;;;;3.60;1.27;;;;;;;18.17;64.25;100059.91;4985218;28;20272;-66
2022/09/16 02:41:02;;;;;;;7.73;2.33;;;;;;;18.17;63.68;100054.53;4988403;28;20210;-66
2022/09/16 02:43:30;;;;;;;5.23;1.60;;;;;;;18.21;63.89;100060.28;4989088;28;20229;-66
2022/09/16 02:46:09;;;;;;;4.37;1.40;;;;;;;18.22;63.13;100061.94;4993773;28;20556;-66
2022/09/16 02:48:49;;;;;;;5.67;1.60;;;;;;;18.16;63.02;100066.28;4991705;28;20808;-66
2022/09/16 02:51:29;;;;;;;6.60;1.80;;;;;;;18.19;63.18;100060.53;4991535;28;20224;-66
2022/09/16 02:54:01;;;;;;;5.57;1.67;;;;;;;18.21;62.81;100069.16;4988120;28;20206;-66
2022/09/16 02:56:32;;;;;;;7.17;2.37;;;;;;;18.17;63.56;100067.13;4990731;28;20206;-66
2022/09/16 02:59:01;;;;;;;3.37;1.43;;;;;;;18.15;64.13;100061.94;4990046;28;20689;-66
2022/09/16 03:01:32;;;;;;;2.83;1.40;;;;;;;18.17;63.44;100064.44;4992535;28;20218;-65
2022/09/16 03:04:03;;;;;;;7.20;1.70;;;;;;;18.14;63.46;100059.47;4988699;28;21102;-66
2022/09/16 03:06:34;;;;;;;3.47;1.33;;;;;;;18.14;63.60;100052.25;4988934;28;20273;-66
2022/09/16 03:09:06;;;;;;;8.80;1.70;;;;;;;18.12;63.74;100056.97;4988893;28;20214;-67
2022/09/16 03:11:49;;;;;;;4.60;1.70;;;;;;;18.11;63.71;100047.31;4984458;28;20277;-66
2022/09/16 03:14:51;;;;;;;8.90;1.90;;;;;;;18.12;63.88;100051.63;4989917;28;20206;-66
2022/09/16 03:17:33;;;;;;;6.03;1.60;;;;;;;18.09;64.09;100052.06;4976244;28;20218;-66
2022/09/16 03:20:09;;;;;;;5.67;1.57;;;;;;;18.07;64.80;100048.75;4986267;28;20278;-67
2022/09/16 03:22:47;;;;;;;9.63;2.63;;;;;;;18.08;64.46;100045.03;4985671;28;20229;-68
2022/09/16 03:25:29;;;;;;;9.03;1.80;;;;;;;18.04;64.16;100036.56;4985343;28;20206;-66
2022/09/16 03:28:05;;;;;;;7.40;1.90;;;;;;;18.03;64.08;100039.44;4987685;28;20213;-66
2022/09/16 03:30:41;;;;;;;3.53;1.37;;;;;;;18.05;64.29;100032.03;4982997;28;20206;-67
2022/09/16 03:33:15;;;;;;;3.67;1.40;;;;;;;18.00;64.88;100026.47;4985721;28;20234;-67
2022/09/16 03:35:49;;;;;;;5.03;1.40;;;;;;;18.00;65.22;100027.28;4984874;28;20202;-67
2022/09/16 03:38:18;;;;;;;9.07;1.97;;;;;;;17.97;64.54;100033.06;4989839;28;20210;-67
2022/09/16 03:40:48;;;;;;;5.83;1.87;;;;;;;17.98;64.54;100017.78;4983452;28;20236;-67
2022/09/16 03:43:16;;;;;;;6.43;1.60;;;;;;;17.94;65.54;100016.56;4987077;28;20273;-66
2022/09/16 03:45:44;;;;;;;6.53;1.60;;;;;;;17.92;65.60;100013.25;4985661;28;20214;-66
2022/09/16 03:48:13;;;;;;;3.60;1.77;;;;;;;17.94;65.75;100011.22;4984537;28;20610;-66
2022/09/16 03:50:41;;;;;;;4.40;1.60;;;;;;;17.90;65.17;100023.38;4986080;28;20241;-66
2022/09/16 03:53:10;;;;;;;7.13;2.00;;;;;;;17.89;65.13;100014.50;4986796;28;20229;-66
2022/09/16 03:55:37;;;;;;;6.97;1.90;;;;;;;17.88;65.09;100023.56;4983899;28;20273;-66
2022/09/16 03:58:05;;;;;;;7.57;2.23;;;;;;;17.84;65.15;100016.16;4987558;28;20288;-66
2022/09/16 04:00:33;;;;;;;6.10;1.77;;;;;;;17.86;65.20;100019.44;4984209;28;20218;-67
2022/09/16 04:03:01;;;;;;;7.30;1.90;;;;;;;17.91;64.86;100019.66;4985374;28;20766;-66
2022/09/16 04:05:29;;;;;;;6.43;1.60;;;;;;;17.90;64.64;100020.69;4988134;28;20688;-66
2022/09/16 04:07:57;;;;;;;11.23;1.80;;;;;;;17.86;65.32;100008.72;4985210;28;20259;-66
2022/09/16 04:10:26;;;;;;;6.87;1.80;;;;;;;17.89;64.90;100019.03;4985413;28;20245;-66
2022/09/16 04:12:57;;;;;;;4.30;1.77;;;;;;;17.93;64.58;100012.25;4986617;28;20636;-66
2022/09/16 04:15:25;;;;;;;3.47;1.53;;;;;;;17.92;64.71;100003.38;4983441;28;20213;-66
2022/09/16 04:17:53;;;;;;;3.07;1.63;;;;;;;17.89;64.97;100001.09;4982485;28;20763;-66
2022/09/16 04:20:21;;;;;;;6.77;1.40;;;;;;;17.92;64.91;99999.84;4987331;28;20214;-65
2022/09/16 04:22:49;;;;;;;5.30;1.60;;;;;;;17.94;64.86;100001.28;4985064;28;20233;-65
2022/09/16 04:25:16;;;;;;;4.83;1.70;;;;;;;17.96;64.67;99999.22;4989209;28;20214;-65
2022/09/16 04:27:45;;;;;;;4.23;1.40;;;;;;;17.94;64.43;99997.78;4987549;28;20289;-67
2022/09/16 04:30:13;;;;;;;5.57;1.67;;;;;;;17.92;64.58;99981.91;4985353;28;20222;-65
2022/09/16 04:32:41;;;;;;;16.30;2.33;;;;;;;17.98;64.16;99991.78;4981558;28;20727;-65
2022/09/16 04:35:09;;;;;;;4.70;1.40;;;;;;;18.01;63.81;99995.94;4988645;28;20408;-66
2022/09/16 04:37:37;;;;;;;7.73;1.53;;;;;;;18.01;63.42;99990.56;4985287;28;20264;-66
2022/09/16 04:40:05;;;;;;;8.57;1.83;;;;;;;18.03;63.49;99993.84;4986047;28;20266;-66
2022/09/16 04:42:33;;;;;;;7.77;1.70;;;;;;;18.06;63.46;99996.13;4987889;28;20214;-67
2022/09/16 04:45:02;;;;;;;5.87;1.73;;;;;;;18.13;62.96;99998.78;4986156;28;20233;-66
2022/09/16 04:47:30;;;;;;;5.07;1.70;;;;;;;18.14;63.08;99998.59;4985905;28;21018;-66
2022/09/16 04:49:58;;;;;;;4.67;2.23;;;;;;;18.15;62.80;99997.56;4984850;28;20344;-66
2022/09/16 04:52:25;;;;;;;4.63;1.70;;;;;;;18.17;62.81;100000.03;4983989;28;20213;-66
2022/09/16 04:54:53;;;;;;;8.97;1.60;;;;;;;18.17;62.57;99995.50;4984691;28;20947;-66
2022/09/16 04:57:24;;;;;;;4.93;1.50;;;;;;;18.15;62.63;100002.91;4983734;28;20198;-67
2022/09/16 04:59:52;;;;;;;5.60;1.63;;;;;;;18.16;62.25;99996.53;4983584;28;20214;-66
2022/09/16 05:02:21;;;;;;;6.33;1.70;;;;;;;18.17;62.51;100002.72;4983942;28;20218;-66
2022/09/16 05:04:48;;;;;;;5.47;1.87;;;;;;;18.12;62.87;100000.66;4985109;28;20238;-66
2022/09/16 05:07:16;;;;;;;7.33;1.70;;;;;;;18.14;62.25;100006.63;4985829;28;20209;-65
2022/09/16 05:09:44;;;;;;;6.57;1.83;;;;;;;18.14;62.46;99995.91;4987482;28;20210;-64
2022/09/16 05:12:11;;;;;;;6.00;1.63;;;;;;;18.12;62.42;99995.28;4986063;28;20210;-65
2022/09/16 05:14:39;;;;;;;5.47;1.70;;;;;;;18.11;62.56;100001.69;4985996;28;20201;-67
2022/09/16 05:17:07;;;;;;;4.67;1.43;;;;;;;18.08;62.11;100007.47;4985300;28;20651;-67
2022/09/16 05:19:36;;;;;;;9.47;1.40;;;;;;;18.07;62.41;100002.31;4986535;28;20587;-67
2022/09/16 05:22:05;;;;;;;5.87;1.40;;;;;;;18.09;62.24;100003.75;4983838;28;20260;-67
2022/09/16 05:24:35;;;;;;;6.27;1.73;;;;;;;18.07;62.21;100013.03;4986277;28;20234;-67
2022/09/16 05:27:03;;;;;;;7.97;1.80;;;;;;;18.08;61.96;100007.47;4990551;28;20202;-66
2022/09/16 05:29:31;;;;;;;4.87;1.40;;;;;;;18.08;62.33;100007.47;4986811;28;20332;-65
2022/09/16 05:31:58;;;;;;;5.23;1.93;;;;;;;18.11;61.76;100009.75;4993155;28;20330;-67
2022/09/16 05:34:27;;;;;;;10.90;2.10;;;;;;;18.10;62.05;100010.78;4995352;28;20647;-66
2022/09/16 05:36:56;;;;;;;10.00;2.00;;;;;;;18.08;61.45;100007.47;4989091;28;20269;-66
2022/09/16 05:39:24;;;;;;;7.67;1.80;;;;;;;18.07;61.31;100018.41;4988225;28;20210;-66
2022/09/16 05:41:55;;;;;;;6.30;1.50;;;;;;;18.03;61.30;100009.94;4989668;28;20223;-66
2022/09/16 05:44:22;;;;;;;7.87;1.80;;;;;;;18.06;61.82;100009.53;4986646;28;20710;-66
2022/09/16 05:46:50;;;;;;;7.37;2.13;;;;;;;18.07;61.59;100005.81;4988024;28;20622;-66
2022/09/16 05:49:19;;;;;;;4.90;1.60;;;;;;;18.09;61.70;100000.25;4992968;28;20633;-67
2022/09/16 05:51:48;;;;;;;9.27;2.03;;;;;;;18.09;61.32;100013.66;4991551;28;20214;-66
2022/09/16 05:54:18;;;;;;;7.63;1.70;;;;;;;18.06;61.33;100009.53;4988967;28;20218;-67
2022/09/16 05:56:47;;;;;;;3.83;1.40;;;;;;;18.05;61.27;100011.38;4987524;28;20236;-67
2022/09/16 05:59:16;;;;;;;2.67;1.20;;;;;;;18.06;61.55;100020.25;4994467;28;20572;-67
2022/09/16 06:01:44;;;;;;;4.77;2.00;;;;;;;18.05;61.54;100022.13;4991343;28;20351;-67
2022/09/16 06:04:14;;;;;;;5.87;1.60;;;;;;;18.07;61.45;100019.22;4990322;28;20258;-67
2022/09/16 06:06:43;;;;;;;8.13;1.47;;;;;;;18.07;61.81;100013.88;4985712;28;20301;-67
2022/09/16 06:09:14;;;;;;;5.33;1.53;;;;;;;18.06;61.79;100014.91;4990111;28;20218;-68
2022/09/16 06:11:45;;;;;;;3.97;1.50;;;;;;;18.08;61.32;100018.19;4986433;28;20206;-66
2022/09/16 06:14:14;;;;;;;10.67;2.43;;;;;;;18.09;61.56;100022.53;4988499;28;20205;-66
2022/09/16 06:16:42;;;;;;;5.93;1.67;;;;;;;18.08;61.38;100020.88;4987422;28;20207;-66
2022/09/16 06:19:12;;;;;;;8.53;1.50;;;;;;;18.06;60.83;100017.56;4987028;28;20678;-66
2022/09/16 06:21:40;;;;;;;6.97;1.57;;;;;;;18.05;61.24;100026.66;4987567;28;20210;-65
2022/09/16 06:24:08;;;;;;;6.47;1.33;;;;;;;18.04;61.43;100025.00;4989274;28;20225;-65
2022/09/16 06:26:38;;;;;;;6.00;1.50;;;;;;;18.07;60.57;100026.47;4988233;28;20292;-66
2022/09/16 06:29:08;;;;;;;4.63;1.43;;;;;;;18.05;60.11;100021.28;4988473;28;20222;-65
2022/09/16 06:31:37;;;;;;;5.63;1.67;;;;;;;18.04;60.38;100023.16;4989043;28;20265;-65
2022/09/16 06:34:06;;;;;;;7.13;1.53;;;;;;;18.05;60.68;100024.81;4986262;28;20242;-66
2022/09/16 06:36:35;;;;;;;8.47;1.60;;;;;;;18.09;59.52;100025.22;4993250;28;20295;-65
2022/09/16 06:39:07;;;;;;;2.63;1.10;;;;;;;18.11;59.42;100028.53;4988598;28;20214;-66
2022/09/16 06:41:34;;;;;;;3.53;1.23;;;;;;;18.16;59.69;100028.72;4990798;28;20210;-66
2022/09/16 06:44:02;;;;;;;5.47;1.70;;;;;;;18.18;59.81;100025.84;4987072;28;20206;-67
2022/09/16 06:46:31;;;;;;;5.80;1.50;;;;;;;18.19;59.64;100027.50;4995275;28;20303;-66
2022/09/16 06:48:59;;;;;;;7.03;1.53;;;;;;;18.22;60.38;100029.75;4986911;28;20213;-66
2022/09/16 06:51:33;;;;;;;6.67;1.47;;;;;;;18.21;59.56;100017.34;4992663;28;20256;-66
2022/09/16 06:54:02;;;;;;;5.50;1.43;;;;;;;18.18;59.45;100018.63;4993016;28;20286;-66
2022/09/16 06:56:30;;;;;;;4.70;1.97;;;;;;;18.20;59.52;100026.47;4988804;28;20202;-66
2022/09/16 06:58:57;;;;;;;6.93;1.63;;;;;;;18.18;60.17;100023.97;4989440;28;20213;-66
2022/09/16 07:01:27;;;;;;;7.40;1.90;;;;;;;18.16;60.46;100017.16;4990234;28;20280;-66
2022/09/16 07:03:58;;;;;;;7.43;2.23;;;;;;;18.15;60.70;100029.75;4986833;28;20300;-66
2022/09/16 07:06:29;;;;;;;8.87;1.70;;;;;;;18.17;60.20;100027.69;4989275;28;20230;-66
2022/09/16 07:09:17;;;;;;;1.93;0.83;;;;;;;18.23;59.69;100020.66;4979403;28;20285;-66
2022/09/16 07:11:44;;;;;;;6.70;1.70;;;;;;;18.27;59.60;100025.41;4983759;28;20779;-66
2022/09/16 07:14:12;;;;;;;8.50;1.73;;;;;;;18.32;59.33;100030.13;4985510;28;20250;-66
2022/09/16 07:16:40;;;;;;;4.60;1.50;;;;;;;18.32;58.54;100028.28;4983741;28;20825;-66
2022/09/16 07:19:09;;;;;;;7.27;1.43;;;;;;;18.36;58.47;100034.91;4985165;28;20210;-66
2022/09/16 07:21:37;;;;;;;4.47;1.23;;;;;;;18.37;58.19;100017.75;4987201;28;20214;-66
2022/09/16 07:24:04;;;;;;;5.40;1.20;;;;;;;18.38;57.54;100032.81;4986707;28;20221;-66
2022/09/16 07:26:34;;;;;;;4.47;1.50;;;;;;;18.38;57.43;100027.44;4987805;28;20912;-66
2022/09/16 07:29:04;;;;;;;9.13;1.30;;;;;;;18.42;57.05;100031.38;4987405;28;20210;-66
2022/09/16 07:31:34;;;;;;;4.53;1.07;;;;;;;18.49;56.27;100025.97;4986135;28;20233;-66
2022/09/16 07:34:04;;;;;;;4.30;1.27;;;;;;;18.58;55.64;100030.13;4985930;28;20646;-66
2022/09/16 07:36:35;;;;;;;3.87;1.20;;;;;;;18.71;55.72;100034.63;4987557;28;20209;-66
2022/09/16 07:39:03;;;;;;;5.30;1.40;;;;;;;18.78;55.56;100027.38;4987505;28;20217;-67
2022/09/16 07:41:34;;;;;;;4.47;1.33;;;;;;;18.84;55.40;100029.22;4987379;28;20261;-68
2022/09/16 07:44:03;;;;;;;4.33;1.20;;;;;;;18.88;55.71;100035.81;4985370;28;20203;-66
2022/09/16 07:46:33;;;;;;;3.87;1.27;;;;;;;18.89;55.62;100034.78;4984928;28;20238;-66
2022/09/16 07:49:02;;;;;;;4.83;1.37;;;;;;;18.89;55.96;100042.03;4986124;28;20726;-67
2022/09/16 07:51:30;;;;;;;5.63;1.33;;;;;;;18.77;54.70;100042.66;4986255;28;20218;-66
2022/09/16 07:54:02;;;;;;;4.53;1.47;;;;;;;18.75;55.31;100047.41;4987288;28;20711;-66
2022/09/16 07:56:33;;;;;;;4.13;1.17;;;;;;;18.71;55.05;100048.06;4986490;28;20209;-66
2022/09/16 07:59:02;;;;;;;7.73;1.23;;;;;;;18.69;55.75;100042.06;4986379;28;20212;-66
2022/09/16 08:01:30;;;;;;;4.60;1.30;;;;;;;18.67;55.82;100039.59;4985386;28;20694;-66
2022/09/16 08:04:00;;;;;;;6.07;1.40;;;;;;;18.68;55.57;100040.44;4985246;28;20210;-66
2022/09/16 08:06:29;;;;;;;6.43;1.23;;;;;;;18.69;55.95;100047.44;4985233;28;20233;-67
2022/09/16 08:08:59;;;;;;;5.57;1.37;;;;;;;18.67;55.50;100042.28;4987500;28;20210;-67
2022/09/16 08:11:48;;;;;;;6.57;1.30;;;;;;;18.65;55.63;100047.03;4981924;28;20241;-66
2022/09/16 08:14:16;;;;;;;6.53;1.40;;;;;;;18.66;55.14;100050.53;4987393;28;20210;-66
2022/09/16 08:16:45;;;;;;;6.53;1.50;;;;;;;18.65;55.78;100049.72;4987145;28;20237;-67
2022/09/16 08:19:13;;;;;;;5.53;1.47;;;;;;;18.69;55.91;100058.19;4985352;28;21210;-64
2022/09/16 08:21:40;;;;;;;4.63;1.13;;;;;;;18.67;56.01;100060.25;4988660;28;20265;-65
2022/09/16 08:24:09;;;;;;;5.23;1.50;;;;;;;18.70;55.47;100057.16;4990024;28;20218;-65
2022/09/16 08:26:37;;;;;;;3.73;1.10;;;;;;;18.72;55.03;100065.84;4989391;28;20230;-65
2022/09/16 08:29:06;;;;;;;3.50;1.00;;;;;;;18.87;54.65;100063.72;4988168;28;20257;-65
2022/09/16 08:31:37;;;;;;;6.67;1.57;;;;;;;18.98;54.07;100068.44;4988221;28;20248;-66
2022/09/16 08:34:06;;;;;;;6.17;1.33;;;;;;;19.01;53.19;100062.63;4988075;28;20292;-65
2022/09/16 08:36:34;;;;;;;5.17;1.00;;;;;;;19.15;52.37;100058.84;4987786;28;20743;-65
2022/09/16 08:39:02;;;;;;;4.77;0.87;;;;;;;19.97;50.24;100064.38;4987086;28;20656;-64
2022/09/16 08:41:50;;;;;;;5.43;1.10;;;;;;;20.11;49.49;100065.94;4987747;28;20873;-64
2022/09/16 08:44:33;;;;;;;5.03;1.40;;;;;;;19.88;49.18;100063.81;4986913;28;20289;-65
2022/09/16 08:47:05;;;;;;;2.90;0.80;;;;;;;19.70;50.62;100064.56;4987385;28;20230;-64
2022/09/16 08:49:36;;;;;;;3.17;1.07;;;;;;;19.54;51.17;100068.59;4987903;28;20299;-64
2022/09/16 08:52:13;;;;;;;2.90;1.03;;;;;;;19.44;51.27;100070.06;4986732;28;20217;-64
2022/09/16 08:54:44;;;;;;;2.70;1.20;;;;;;;19.35;51.83;100064.13;4987824;28;20947;-64
2022/09/16 08:57:15;;;;;;;2.80;1.07;;;;;;;19.29;52.28;100069.53;4988704;28;20575;-64
2022/09/16 08:59:48;;;;;;;6.63;1.30;;;;;;;19.26;51.85;100065.41;4992041;28;20822;-63
2022/09/16 09:02:28;;;;;;;4.57;0.90;;;;;;;19.29;51.18;100066.84;4992451;28;20206;-65
2022/09/16 09:04:56;;;;;;;3.63;1.10;;;;;;;19.25;51.11;100073.69;4990966;28;20219;-66
2022/09/16 09:07:42;;;;;;;6.47;1.40;;;;;;;19.18;51.69;100074.53;4990987;28;20285;-66
2022/09/16 09:10:15;;;;;;;5.53;1.10;;;;;;;19.17;50.56;100072.09;4992738;28;20206;-67
2022/09/16 09:12:48;;;;;;;5.33;1.10;;;;;;;19.14;49.75;100073.34;4989335;28;20224;-66
2022/09/16 09:15:32;;;;;;;8.30;0.90;;;;;;;19.20;49.10;100071.66;4991296;28;20237;-66
2022/09/16 09:18:13;;;;;;;6.73;0.83;;;;;;;19.37;49.00;100070.09;4992603;28;20210;-66
2022/09/16 09:20:49;;;;;;;2.53;0.67;;;;;;;19.65;48.08;100072.47;4991117;28;20213;-66
2022/09/16 09:23:33;;;;;;;3.30;0.83;;;;;;;19.76;47.01;100071.78;4988486;28;20354;-66
2022/09/16 09:26:07;;;;;;;2.63;0.80;;;;;;;19.99;46.84;100071.19;4988991;28;20225;-66
2022/09/16 09:29:00;;;;;;;3.73;1.00;;;;;;;21.06;44.75;100067.25;4988784;28;20229;-67
2022/09/16 09:31:38;;;;;;;2.87;0.97;;;;;;;22.02;43.00;100059.09;4989479;28;20257;-66
2022/09/16 09:34:16;;;;;;;7.30;1.03;;;;;;;22.57;41.93;100052.53;4988789;28;20246;-65
2022/09/16 09:36:59;;;;;;;7.30;0.90;;;;;;;22.52;41.30;100061.34;4992305;28;20234;-66
2022/09/16 09:39:42;;;;;;;4.37;1.00;;;;;;;22.26;41.96;100053.69;4989899;28;20618;-66
2022/09/16 09:42:15;;;;;;;8.47;1.00;;;;;;;22.52;42.09;100050.53;4989655;28;20213;-66
2022/09/16 09:44:51;;;;;;;2.10;0.80;;;;;;;22.81;40.79;100036.06;4990444;28;20932;-66
2022/09/16 09:47:25;;;;;;;2.67;0.87;;;;;;;22.50;41.25;100044.56;4989124;28;20229;-66
2022/09/16 09:49:56;;;;;;;5.03;1.10;;;;;;;22.08;41.57;100055.44;4991456;28;20257;-65
2022/09/16 09:52:31;;;;;;;4.37;1.20;;;;;;;21.70;42.82;100052.31;4990140;28;20216;-66
2022/09/16 09:55:13;;;;;;;4.60;0.80;;;;;;;21.40;43.26;100053.16;4989631;28;20214;-66
2022/09/16 09:57:55;;;;;;;4.33;0.83;;;;;;;21.18;43.76;100046.63;4990768;28;20233;-67
2022/09/16 10:00:23;;;;;;;7.13;1.47;;;;;;;21.07;44.29;100044.66;4987790;28;20296;-66
2022/09/16 10:02:52;;;;;;;3.27;0.80;;;;;;;20.99;44.70;100042.25;4990689;28;20798;-67
2022/09/16 10:05:24;;;;;;;4.30;0.73;;;;;;;20.89;45.50;100040.09;4987939;28;20659;-66
2022/09/16 10:07:55;;;;;;;4.17;1.07;;;;;;;20.80;45.40;100041.44;4990185;28;20222;-66
2022/09/16 10:10:24;;;;;;;4.47;0.80;;;;;;;20.69;44.27;100041.34;4988983;28;20703;-66
2022/09/16 10:12:53;;;;;;;2.50;0.80;;;;;;;20.58;45.45;100046.44;4988798;28;20206;-66
2022/09/16 10:15:23;;;;;;;4.23;0.97;;;;;;;20.50;45.60;100046.72;4992387;28;20750;-67
2022/09/16 10:17:53;;;;;;;4.60;0.80;;;;;;;20.41;45.03;100041.84;4991667;28;20297;-67
2022/09/16 10:20:27;;;;;;;4.23;0.90;;;;;;;20.40;45.59;100037.53;4990185;28;20222;-67
2022/09/16 10:22:59;;;;;;;2.63;0.80;;;;;;;20.36;45.65;100030.94;4989561;28;21158;-67
2022/09/16 10:25:29;;;;;;;5.90;1.03;;;;;;;20.33;45.42;100036.72;4990535;28;20209;-67
2022/09/16 10:28:00;;;;;;;2.73;0.83;;;;;;;20.31;45.66;100026.22;4990505;28;20280;-66
2022/09/16 10:30:31;;;;;;;2.33;0.70;;;;;;;20.26;46.34;100029.53;4990092;28;20249;-68
2022/09/16 10:33:03;;;;;;;5.97;1.00;;;;;;;20.28;45.61;100034.72;4986784;28;20234;-66
2022/09/16 10:35:33;;;;;;;4.43;0.90;;;;;;;20.24;45.53;100037.00;4991489;28;20260;-67
2022/09/16 10:38:05;;;;;;;3.83;1.10;;;;;;;20.44;45.12;100031.47;4990659;28;20202;-67
2022/09/16 10:40:33;;;;;;;5.13;1.50;;;;;;;20.79;44.66;100026.31;4987908;28;20210;-67
2022/09/16 10:43:04;;;;;;;3.10;0.80;;;;;;;21.04;43.71;100021.66;4990646;28;20223;-67
2022/09/16 10:45:35;;;;;;;6.87;1.10;;;;;;;21.13;44.37;100019.47;4993664;28;20265;-68
2022/09/16 10:48:12;;;;;;;2.63;0.93;;;;;;;21.65;43.23;100017.91;4992873;28;20230;-67
2022/09/16 10:50:39;;;;;;;5.33;1.10;;;;;;;21.59;42.65;100023.41;4988101;28;20213;-66
2022/09/16 10:53:22;;;;;;;4.13;1.03;;;;;;;21.38;43.21;100014.78;4990588;28;20217;-68
2022/09/16 10:55:57;;;;;;;5.20;1.10;;;;;;;21.53;42.79;100013.56;4992392;28;20206;-61
2022/09/16 10:58:25;;;;;;;3.03;0.90;;;;;;;21.47;43.40;100014.47;4989651;28;20206;-62
2022/09/16 11:01:18;;;;;;;2.73;0.93;;;;;;;21.46;43.74;100015.53;4990842;28;20636;-63
2022/09/16 11:04:20;;;;;;;3.07;1.07;;;;;;;21.24;43.52;100005.25;4986425;28;20217;-67
2022/09/16 11:07:01;;;;;;;3.33;0.70;;;;;;;21.02;43.46;100006.78;4986048;28;20249;-66
2022/09/16 11:09:35;;;;;;;2.10;0.90;;;;;;;21.01;42.80;99999.75;4986287;28;20206;-67
2022/09/16 11:12:33;;;;;;;5.70;0.83;;;;;;;21.01;43.59;100007.81;4987885;28;20615;-67
2022/09/16 11:15:12;;;;;;;3.97;0.70;;;;;;;21.10;42.31;100005.63;4988765;28;20653;-68
2022/09/16 11:17:57;;;;;;;2.23;0.70;;;;;;;21.14;43.10;100013.03;4986582;28;20723;-66
2022/09/16 11:20:56;;;;;;;4.30;0.70;;;;;;;21.17;42.80;99999.13;4988289;28;20237;-66
2022/09/16 11:23:40;;;;;;;5.00;1.00;;;;;;;21.15;43.29;100000.38;4986768;28;20215;-66
2022/09/16 11:26:17;;;;;;;2.63;0.80;;;;;;;21.05;42.63;100006.31;4988439;28;20217;-67
2022/09/16 11:29:08;;;;;;;1.87;0.53;;;;;;;21.40;44.22;100014.56;4988032;28;20226;-67
2022/09/16 11:31:43;;;;;;;2.07;0.60;;;;;;;21.55;41.79;100022.25;4985194;28;21407;-67
2022/09/16 11:34:23;;;;;;;2.40;0.57;;;;;;;21.39;43.68;100018.31;4986773;28;20265;-67
2022/09/16 11:37:06;;;;;;;2.90;0.80;;;;;;;21.15;44.15;100021.94;4985453;28;20230;-67
2022/09/16 11:40:00;;;;;;;2.67;0.90;;;;;;;20.92;45.96;100038.81;4988372;28;20210;-67
2022/09/16 11:42:33;;;;;;;5.20;0.80;;;;;;;20.76;47.39;100031.34;4985691;28;20265;-68
2022/09/16 11:45:11;;;;;;;10.23;1.00;;;;;;;20.63;49.51;100025.06;4983938;28;20270;-68
2022/09/16 11:47:53;;;;;;;3.10;0.80;;;;;;;20.49;50.05;100034.31;4985331;28;20385;-70
2022/09/16 11:50:41;;;;;;;4.33;1.00;;;;;;;20.48;49.56;100038.06;4985295;28;20281;-69